x

Fripp Nearshore (frp 2) (41033) Weather Station

5:08pm - Sat 27th Aug 2016 All times are EDT. -4 hours from GMT.

  • Wind
    18mph, 20mph gusts
  • Sea Temp 86°f
  • Air Temp 84°f
  • Sea Pressure 1016.4mb
  • Fripp Nearshore (frp 2)
  • Fripp Nearshore (frp 2)

More Historic Weather Station data

Upgrade to MSW Pro to gain access to the past 30 days of data for over 8000 Wavebouys and Weather Stations around the globe.

Join Pro

Comparision Forecast

View Surf forecast
   
Sat 08/27 5:08pm 18 20 mph 1016.4mb 86f 84f
4:08pm 16 20 mph 1016.8mb 86f 84f
3:08pm 13 20 mph 1017.2mb 86f 84f
2:08pm 16 22 mph 1017.9mb 86f 83f
1:08pm 18 25 mph 1017.7mb 86f 83f
12:08pm 18 27 mph 1018.1mb 86f 83f
11:08am 18 27 mph 1018.3mb 85f 83f
10:08am 13 20 mph 1018.1mb 86f 83f
9:08am 13 20 mph 1017.6mb 86f 82f
8:08am 16 20 mph 1017.3mb 86f 82f
7:08am 13 18 mph 1016.8mb 86f 82f
6:08am 11 13 mph 1016.4mb 86f 82f
5:08am 11 13 mph 1016.4mb 86f 82f
4:08am 9 13 mph 1016.2mb 86f 82f
3:08am 9 11 mph 1016.8mb 86f 82f
2:08am 4 9 mph 1017mb 86f 82f
1:08am 7 11 mph 1017.4mb 86f 82f
12:08am 9 11 mph 1017.9mb 86f 82f
Fri 08/26 11:08pm 11 16 mph 1018mb 86f 82f
10:08pm 13 18 mph 1017.9mb 86f 83f
9:08pm 11 18 mph 1017.2mb 86f 82f
8:08pm 13 18 mph 1016.2mb 86f 82f
7:08pm 16 20 mph 1016mb 86f 83f
6:08pm 16 18 mph 1016.2mb 86f 83f
5:08pm 13 18 mph 1016.6mb 86f 83f
4:08pm 11 16 mph 1016.8mb 86f 83f
3:08pm 11 16 mph 1017.3mb 86f 83f
2:08pm 13 18 mph 1018mb 86f 83f
1:08pm 13 18 mph 1018.2mb 86f 83f
12:08pm 13 18 mph 1018.8mb 86f 83f
11:08am 11 18 mph 1019.2mb 86f 82f
10:08am 11 16 mph 1019.1mb 86f 82f
9:08am 11 13 mph 1018.6mb 86f 82f
8:08am 11 13 mph 1018.4mb 86f 82f
7:08am 9 11 mph 1018.4mb 86f 83f
6:08am 7 9 mph 1017.7mb 86f 82f
5:08am 7 9 mph 1017.5mb 86f 82f
4:08am 7 9 mph 1017.6mb 86f 83f
3:08am 7 9 mph 1017.7mb 86f 82f
2:08am 7 9 mph 1018.2mb 86f 83f
1:08am 9 16 mph 1018.3mb 86f 83f
12:08am 11 16 mph 1018.2mb 86f 83f
Thu 08/25 11:08pm 11 16 mph 1018.1mb 86f 83f
10:08pm 11 16 mph 1018.2mb 86f 83f
9:08pm 11 16 mph 1017.9mb 86f 83f
8:08pm 11 16 mph 1017.8mb 86f 83f
7:08pm 13 18 mph 1017.7mb 86f 83f
6:08pm 13 18 mph 1017.7mb 86f 83f
5:08pm 13 18 mph 1017.9mb 86f 83f
4:08pm 11 18 mph 1018.2mb 86f 83f
3:08pm 13 18 mph 1018.8mb 86f 83f
2:08pm 11 16 mph 1019.6mb 86f 83f
1:08pm 11 16 mph 1020.3mb 86f 83f
12:08pm 11 16 mph 1020.5mb 86f 82f
11:08am 16 20 mph 1020.8mb 86f 81f
10:08am 18 22 mph 1020.7mb 85f 80f
9:08am 18 22 mph 1020.2mb 85f 80f
8:08am 18 22 mph 1019.8mb 86f 79f
7:08am 18 22 mph 1019.4mb 86f 80f
6:08am 16 20 mph 1019mb 86f 80f
5:08am 16 20 mph 1018.8mb 86f 80f
4:08am 16 20 mph 1018.8mb 86f 81f
3:08am 11 18 mph 1019.3mb 86f 82f
2:08am 13 18 mph 1019.8mb 86f 82f
1:08am 13 18 mph 1020.3mb 86f 82f
12:08am 13 18 mph 1020.7mb 86f 82f
Wed 08/24 11:08pm 13 18 mph 1021.3mb 86f 82f
10:08pm 16 20 mph 1021.5mb 86f 83f
9:08pm 16 20 mph 1021.3mb 86f 83f
8:08pm 13 18 mph 1021.1mb 86f 83f
7:08pm 16 20 mph 1021mb 87f 83f
6:08pm 16 22 mph 1020.9mb 87f 83f
5:08pm 18 25 mph 1021.1mb 87f 83f
4:08pm 18 22 mph 1021.5mb 87f 83f
3:08pm 18 25 mph 1021.8mb 87f 83f
2:08pm 20 27 mph 1022.5mb 87f 83f
1:08pm 20 25 mph 1022.9mb 87f 83f
12:08pm 18 25 mph 1023.3mb 86f 83f
11:08am 18 25 mph 1023.2mb 86f 82f
10:08am 18 22 mph 1023.2mb 86f 82f
9:08am 16 20 mph 1022.9mb 86f 83f
8:08am 16 20 mph 1022.9mb 86f 83f
7:08am 13 20 mph 1022.5mb 86f 83f
6:08am 13 18 mph 1021.9mb 87f 83f
5:08am 13 20 mph 1021.1mb 87f 83f
4:08am 13 20 mph 1021.3mb 87f 83f
3:08am 13 18 mph 1021.6mb 87f 83f
2:08am 13 20 mph 1021.8mb 87f 83f
1:08am 13 20 mph 1022.3mb 87f 84f
12:08am 13 18 mph 1022.7mb 87f 83f
Tue 08/23 11:08pm 13 18 mph 1022.5mb 87f 83f